sensor_id;sensor_type;location;lat;lon;timestamp;pressure;altitude;pressure_sealevel;temperature
71807;BMP280;59655;42.590;23.364;2024-03-08T00:00:13;91357.94;;;5.35
71807;BMP280;59655;42.590;23.364;2024-03-08T00:02:40;91356.72;;;5.36
71807;BMP280;59655;42.590;23.364;2024-03-08T00:05:07;91355.31;;;5.35
71807;BMP280;59655;42.590;23.364;2024-03-08T00:07:40;91350.56;;;5.33
71807;BMP280;59655;42.590;23.364;2024-03-08T00:10:07;91358.53;;;5.28
71807;BMP280;59655;42.590;23.364;2024-03-08T00:12:39;91354.69;;;5.29
71807;BMP280;59655;42.590;23.364;2024-03-08T00:15:14;91355.91;;;5.28
71807;BMP280;59655;42.590;23.364;2024-03-08T00:17:41;91355.41;;;5.29
71807;BMP280;59655;42.590;23.364;2024-03-08T00:20:07;91352.56;;;5.27
71807;BMP280;59655;42.590;23.364;2024-03-08T00:22:38;91351.41;;;5.22
71807;BMP280;59655;42.590;23.364;2024-03-08T00:25:05;91357.84;;;5.27
71807;BMP280;59655;42.590;23.364;2024-03-08T00:27:30;91352.25;;;5.31
71807;BMP280;59655;42.590;23.364;2024-03-08T00:29:59;91352.06;;;5.29
71807;BMP280;59655;42.590;23.364;2024-03-08T00:32:25;91349.72;;;5.25
71807;BMP280;59655;42.590;23.364;2024-03-08T00:34:55;91345.88;;;5.26
71807;BMP280;59655;42.590;23.364;2024-03-08T00:37:21;91352.06;;;5.29
71807;BMP280;59655;42.590;23.364;2024-03-08T00:39:53;91346.09;;;5.28
71807;BMP280;59655;42.590;23.364;2024-03-08T00:42:19;91344.47;;;5.25
71807;BMP280;59655;42.590;23.364;2024-03-08T00:44:45;91343.53;;;5.22
71807;BMP280;59655;42.590;23.364;2024-03-08T00:47:11;91332.78;;;5.20
71807;BMP280;59655;42.590;23.364;2024-03-08T00:49:36;91324.84;;;5.26
71807;BMP280;59655;42.590;23.364;2024-03-08T00:52:06;91322.78;;;5.19
71807;BMP280;59655;42.590;23.364;2024-03-08T00:54:32;91318.25;;;5.00
71807;BMP280;59655;42.590;23.364;2024-03-08T00:56:57;91310.03;;;5.10
71807;BMP280;59655;42.590;23.364;2024-03-08T00:59:23;91308.09;;;5.10
71807;BMP280;59655;42.590;23.364;2024-03-08T01:01:48;91307.88;;;5.08
71807;BMP280;59655;42.590;23.364;2024-03-08T01:04:13;91306.28;;;5.18
71807;BMP280;59655;42.590;23.364;2024-03-08T01:06:39;91307.72;;;5.19
71807;BMP280;59655;42.590;23.364;2024-03-08T01:09:04;91306.94;;;5.24
71807;BMP280;59655;42.590;23.364;2024-03-08T01:11:33;91311.75;;;5.20
71807;BMP280;59655;42.590;23.364;2024-03-08T01:13:59;91295.00;;;5.23
71807;BMP280;59655;42.590;23.364;2024-03-08T01:16:24;91296.63;;;5.27
71807;BMP280;59655;42.590;23.364;2024-03-08T01:18:49;91301.44;;;5.22
71807;BMP280;59655;42.590;23.364;2024-03-08T01:21:15;91295.06;;;5.18
71807;BMP280;59655;42.590;23.364;2024-03-08T01:23:41;91292.94;;;5.16
71807;BMP280;59655;42.590;23.364;2024-03-08T01:26:06;91293.34;;;5.20
71807;BMP280;59655;42.590;23.364;2024-03-08T01:28:31;91288.31;;;5.22
71807;BMP280;59655;42.590;23.364;2024-03-08T01:30:59;91284.69;;;5.26
71807;BMP280;59655;42.590;23.364;2024-03-08T01:33:25;91291.63;;;5.23
71807;BMP280;59655;42.590;23.364;2024-03-08T01:35:53;91290.72;;;5.20
71807;BMP280;59655;42.590;23.364;2024-03-08T01:38:19;91291.22;;;5.19
71807;BMP280;59655;42.590;23.364;2024-03-08T01:40:46;91288.59;;;5.19
71807;BMP280;59655;42.590;23.364;2024-03-08T01:43:19;91283.44;;;5.13
71807;BMP280;59655;42.590;23.364;2024-03-08T01:45:44;91290.59;;;5.13
71807;BMP280;59655;42.590;23.364;2024-03-08T01:48:10;91284.16;;;5.14
71807;BMP280;59655;42.590;23.364;2024-03-08T01:50:35;91293.13;;;5.18
71807;BMP280;59655;42.590;23.364;2024-03-08T01:53:01;91290.78;;;5.15
71807;BMP280;59655;42.590;23.364;2024-03-08T01:55:27;91287.28;;;5.12
71807;BMP280;59655;42.590;23.364;2024-03-08T01:57:52;91283.06;;;5.03
71807;BMP280;59655;42.590;23.364;2024-03-08T02:00:19;91292.59;;;5.07
71807;BMP280;59655;42.590;23.364;2024-03-08T02:02:46;91287.19;;;4.99
71807;BMP280;59655;42.590;23.364;2024-03-08T02:05:12;91290.75;;;5.01
71807;BMP280;59655;42.590;23.364;2024-03-08T02:07:41;91283.69;;;4.96
71807;BMP280;59655;42.590;23.364;2024-03-08T02:10:09;91286.31;;;4.96
71807;BMP280;59655;42.590;23.364;2024-03-08T02:12:34;91288.41;;;4.98
71807;BMP280;59655;42.590;23.364;2024-03-08T02:15:00;91295.88;;;4.94
71807;BMP280;59655;42.590;23.364;2024-03-08T02:17:25;91299.53;;;4.91
71807;BMP280;59655;42.590;23.364;2024-03-08T02:19:51;91295.19;;;4.74
71807;BMP280;59655;42.590;23.364;2024-03-08T02:22:16;91295.63;;;4.78
71807;BMP280;59655;42.590;23.364;2024-03-08T02:24:42;91295.09;;;4.80
71807;BMP280;59655;42.590;23.364;2024-03-08T02:27:07;91296.25;;;4.85
71807;BMP280;59655;42.590;23.364;2024-03-08T02:29:33;91299.31;;;4.89
71807;BMP280;59655;42.590;23.364;2024-03-08T02:31:59;91298.09;;;4.90
71807;BMP280;59655;42.590;23.364;2024-03-08T02:34:24;91296.88;;;4.91
71807;BMP280;59655;42.590;23.364;2024-03-08T02:36:50;91297.38;;;4.89
71807;BMP280;59655;42.590;23.364;2024-03-08T02:39:16;91303.84;;;4.88
71807;BMP280;59655;42.590;23.364;2024-03-08T02:41:42;91305.06;;;4.87
71807;BMP280;59655;42.590;23.364;2024-03-08T02:44:07;91305.53;;;4.86
71807;BMP280;59655;42.590;23.364;2024-03-08T02:46:33;91302.69;;;4.83
71807;BMP280;59655;42.590;23.364;2024-03-08T02:48:58;91302.78;;;4.78
71807;BMP280;59655;42.590;23.364;2024-03-08T02:51:23;91309.97;;;4.77
71807;BMP280;59655;42.590;23.364;2024-03-08T02:53:51;91307.75;;;4.81
71807;BMP280;59655;42.590;23.364;2024-03-08T02:56:16;91308.75;;;4.78
71807;BMP280;59655;42.590;23.364;2024-03-08T02:58:43;91313.09;;;4.76
71807;BMP280;59655;42.590;23.364;2024-03-08T03:01:08;91313.34;;;4.72
71807;BMP280;59655;42.590;23.364;2024-03-08T03:03:35;91306.84;;;4.79
71807;BMP280;59655;42.590;23.364;2024-03-08T03:06:00;91312.72;;;4.85
71807;BMP280;59655;42.590;23.364;2024-03-08T03:08:26;91316.75;;;4.86
71807;BMP280;59655;42.590;23.364;2024-03-08T03:10:51;91316.97;;;4.88
71807;BMP280;59655;42.590;23.364;2024-03-08T03:13:16;91318.41;;;4.89
71807;BMP280;59655;42.590;23.364;2024-03-08T03:15:46;91313.63;;;4.88
71807;BMP280;59655;42.590;23.364;2024-03-08T03:18:11;91325.88;;;4.85
71807;BMP280;59655;42.590;23.364;2024-03-08T03:20:37;91316.97;;;4.88
71807;BMP280;59655;42.590;23.364;2024-03-08T03:23:06;91315.78;;;4.89
71807;BMP280;59655;42.590;23.364;2024-03-08T03:25:33;91316.13;;;4.80
71807;BMP280;59655;42.590;23.364;2024-03-08T03:28:02;91323.28;;;4.79
71807;BMP280;59655;42.590;23.364;2024-03-08T03:30:28;91325.72;;;4.77
71807;BMP280;59655;42.590;23.364;2024-03-08T03:33:01;91320.88;;;4.81
71807;BMP280;59655;42.590;23.364;2024-03-08T03:35:30;91323.28;;;4.79
71807;BMP280;59655;42.590;23.364;2024-03-08T03:37:55;91327.66;;;4.77
71807;BMP280;59655;42.590;23.364;2024-03-08T03:40:34;91328.63;;;4.74
71807;BMP280;59655;42.590;23.364;2024-03-08T03:42:59;91333.94;;;4.68
71807;BMP280;59655;42.590;23.364;2024-03-08T03:45:25;91332.97;;;4.71
71807;BMP280;59655;42.590;23.364;2024-03-08T03:47:50;91333.41;;;4.75
71807;BMP280;59655;42.590;23.364;2024-03-08T03:50:17;91331.69;;;4.78
71807;BMP280;59655;42.590;23.364;2024-03-08T03:52:45;91334.50;;;4.80
71807;BMP280;59655;42.590;23.364;2024-03-08T03:55:10;91336.16;;;4.83
71807;BMP280;59655;42.590;23.364;2024-03-08T03:57:37;91338.06;;;4.82
71807;BMP280;59655;42.590;23.364;2024-03-08T04:00:03;91339.19;;;4.68
71807;BMP280;59655;42.590;23.364;2024-03-08T04:02:29;91338.00;;;4.69
71807;BMP280;59655;42.590;23.364;2024-03-08T04:04:55;91338.22;;;4.71
71807;BMP280;59655;42.590;23.364;2024-03-08T04:07:20;91340.63;;;4.69
71807;BMP280;59655;42.590;23.364;2024-03-08T04:09:46;91347.78;;;4.69
71807;BMP280;59655;42.590;23.364;2024-03-08T04:12:12;91354.13;;;4.60
71807;BMP280;59655;42.590;23.364;2024-03-08T04:14:39;91345.22;;;4.63
71807;BMP280;59655;42.590;23.364;2024-03-08T04:17:05;91338.50;;;4.68
71807;BMP280;59655;42.590;23.364;2024-03-08T04:19:31;91348.53;;;4.69
71807;BMP280;59655;42.590;23.364;2024-03-08T04:21:56;91348.28;;;4.67
71807;BMP280;59655;42.590;23.364;2024-03-08T04:24:22;91351.41;;;4.66
71807;BMP280;59655;42.590;23.364;2024-03-08T04:26:47;91359.38;;;4.60
71807;BMP280;59655;42.590;23.364;2024-03-08T04:29:12;91362.06;;;4.54
71807;BMP280;59655;42.590;23.364;2024-03-08T04:31:40;91372.72;;;4.62
71807;BMP280;59655;42.590;23.364;2024-03-08T04:34:05;91368.22;;;4.57
71807;BMP280;59655;42.590;23.364;2024-03-08T04:36:30;91372.34;;;4.52
71807;BMP280;59655;42.590;23.364;2024-03-08T04:38:56;91365.22;;;4.47
71807;BMP280;59655;42.590;23.364;2024-03-08T04:41:21;91374.59;;;4.18
71807;BMP280;59655;42.590;23.364;2024-03-08T04:43:48;91372.75;;;4.07
71807;BMP280;59655;42.590;23.364;2024-03-08T04:46:13;91375.31;;;4.18
71807;BMP280;59655;42.590;23.364;2024-03-08T04:48:39;91374.59;;;4.18
71807;BMP280;59655;42.590;23.364;2024-03-08T04:51:04;91369.06;;;4.21
71807;BMP280;59655;42.590;23.364;2024-03-08T04:53:30;91374.00;;;4.31
71807;BMP280;59655;42.590;23.364;2024-03-08T04:55:57;91369.00;;;4.27
71807;BMP280;59655;42.590;23.364;2024-03-08T04:58:23;91385.44;;;4.33
71807;BMP280;59655;42.590;23.364;2024-03-08T05:00:48;91376.56;;;4.36
71807;BMP280;59655;42.590;23.364;2024-03-08T05:03:13;91384.22;;;4.34
71807;BMP280;59655;42.590;23.364;2024-03-08T05:05:39;91388.75;;;4.34
71807;BMP280;59655;42.590;23.364;2024-03-08T05:08:05;91389.72;;;4.36
71807;BMP280;59655;42.590;23.364;2024-03-08T05:10:30;91384.47;;;4.36
71807;BMP280;59655;42.590;23.364;2024-03-08T05:12:55;91398.72;;;4.41
71807;BMP280;59655;42.590;23.364;2024-03-08T05:15:21;91392.56;;;4.38
71807;BMP280;59655;42.590;23.364;2024-03-08T05:17:46;91397.72;;;4.44
71807;BMP280;59655;42.590;23.364;2024-03-08T05:20:12;91392.03;;;4.40
71807;BMP280;59655;42.590;23.364;2024-03-08T05:22:38;91400.91;;;4.37
71807;BMP280;59655;42.590;23.364;2024-03-08T05:25:05;91406.44;;;4.33
71807;BMP280;59655;42.590;23.364;2024-03-08T05:27:33;91406.44;;;4.33
71807;BMP280;59655;42.590;23.364;2024-03-08T05:29:59;91407.31;;;4.41
71807;BMP280;59655;42.590;23.364;2024-03-08T05:32:24;91413.25;;;4.42
71807;BMP280;59655;42.590;23.364;2024-03-08T05:34:50;91415.38;;;4.43
71807;BMP280;59655;42.590;23.364;2024-03-08T05:37:15;91422.78;;;4.45
71807;BMP280;59655;42.590;23.364;2024-03-08T05:39:41;91426.38;;;4.42
71807;BMP280;59655;42.590;23.364;2024-03-08T05:42:06;91420.22;;;4.39
71807;BMP280;59655;42.590;23.364;2024-03-08T05:44:34;91421.38;;;4.44
71807;BMP280;59655;42.590;23.364;2024-03-08T05:46:59;91429.31;;;4.38
71807;BMP280;59655;42.590;23.364;2024-03-08T05:49:24;91426.69;;;4.38
71807;BMP280;59655;42.590;23.364;2024-03-08T05:51:50;91437.19;;;4.38
71807;BMP280;59655;42.590;23.364;2024-03-08T05:54:16;91436.97;;;4.36
71807;BMP280;59655;42.590;23.364;2024-03-08T05:56:42;91441.94;;;4.40
71807;BMP280;59655;42.590;23.364;2024-03-08T05:59:08;91440.25;;;4.42
71807;BMP280;59655;42.590;23.364;2024-03-08T06:01:35;91440.47;;;4.45
71807;BMP280;59655;42.590;23.364;2024-03-08T06:04:02;91452.94;;;4.38
71807;BMP280;59655;42.590;23.364;2024-03-08T06:06:27;91450.09;;;4.36
71807;BMP280;59655;42.590;23.364;2024-03-08T06:08:53;91451.78;;;4.34
71807;BMP280;59655;42.590;23.364;2024-03-08T06:11:21;91458.25;;;4.33
71807;BMP280;59655;42.590;23.364;2024-03-08T06:13:47;91454.97;;;4.21
71807;BMP280;59655;42.590;23.364;2024-03-08T06:16:12;91455.84;;;4.35
71807;BMP280;59655;42.590;23.364;2024-03-08T06:18:38;91461.25;;;4.42
71807;BMP280;59655;42.590;23.364;2024-03-08T06:21:05;91462.81;;;4.27
71807;BMP280;59655;42.590;23.364;2024-03-08T06:23:34;91463.22;;;4.36
71807;BMP280;59655;42.590;23.364;2024-03-08T06:26:06;91465.72;;;4.48
71807;BMP280;59655;42.590;23.364;2024-03-08T06:28:31;91469.84;;;4.43
71807;BMP280;59655;42.590;23.364;2024-03-08T06:31:01;91466.03;;;4.44
71807;BMP280;59655;42.590;23.364;2024-03-08T06:33:27;91474.59;;;4.45
71807;BMP280;59655;42.590;23.364;2024-03-08T06:35:53;91481.97;;;4.52
71807;BMP280;59655;42.590;23.364;2024-03-08T06:38:19;91481.28;;;4.46
71807;BMP280;59655;42.590;23.364;2024-03-08T06:40:45;91476.25;;;4.48
71807;BMP280;59655;42.590;23.364;2024-03-08T06:43:13;91475.63;;;4.36
71807;BMP280;59655;42.590;23.364;2024-03-08T06:45:41;91484.72;;;4.35
71807;BMP280;59655;42.590;23.364;2024-03-08T06:48:07;91485.41;;;4.41
71807;BMP280;59655;42.590;23.364;2024-03-08T06:50:34;91480.88;;;4.36
71807;BMP280;59655;42.590;23.364;2024-03-08T06:53:01;91491.13;;;4.39
71807;BMP280;59655;42.590;23.364;2024-03-08T06:55:28;91486.13;;;4.36
71807;BMP280;59655;42.590;23.364;2024-03-08T06:57:54;91489.03;;;4.32
71807;BMP280;59655;42.590;23.364;2024-03-08T07:00:19;91485.25;;;4.28
71807;BMP280;59655;42.590;23.364;2024-03-08T07:02:46;91487.84;;;4.33
71807;BMP280;59655;42.590;23.364;2024-03-08T07:05:14;91488.06;;;4.35
71807;BMP280;59655;42.590;23.364;2024-03-08T07:07:39;91492.88;;;4.31
71807;BMP280;59655;42.590;23.364;2024-03-08T07:10:06;91493.53;;;4.37
71807;BMP280;59655;42.590;23.364;2024-03-08T07:12:36;91492.28;;;4.44
71807;BMP280;59655;42.590;23.364;2024-03-08T07:15:02;91502.97;;;4.52
71807;BMP280;59655;42.590;23.364;2024-03-08T07:17:27;91492.72;;;4.48
71807;BMP280;59655;42.590;23.364;2024-03-08T07:19:53;91498.03;;;4.42
71807;BMP280;59655;42.590;23.364;2024-03-08T07:22:19;91495.09;;;4.52
71807;BMP280;59655;42.590;23.364;2024-03-08T07:24:44;91502.69;;;4.55
71807;BMP280;59655;42.590;23.364;2024-03-08T07:27:42;91497.38;;;4.61
71807;BMP280;59655;42.590;23.364;2024-03-08T07:30:07;91496.59;;;4.72
71807;BMP280;59655;42.590;23.364;2024-03-08T07:32:35;91494.88;;;4.74
71807;BMP280;59655;42.590;23.364;2024-03-08T07:35:01;91506.03;;;4.80
71807;BMP280;59655;42.590;23.364;2024-03-08T07:37:30;91499.81;;;4.83
71807;BMP280;59655;42.590;23.364;2024-03-08T07:39:56;91504.31;;;4.89
71807;BMP280;59655;42.590;23.364;2024-03-08T07:42:23;91495.03;;;4.82
71807;BMP280;59655;42.590;23.364;2024-03-08T07:44:48;91500.28;;;4.82
71807;BMP280;59655;42.590;23.364;2024-03-08T07:47:15;91506.50;;;4.85
71807;BMP280;59655;42.590;23.364;2024-03-08T07:49:42;91501.47;;;4.87
71807;BMP280;59655;42.590;23.364;2024-03-08T07:52:09;91502.91;;;4.82
71807;BMP280;59655;42.590;23.364;2024-03-08T07:54:34;91500.03;;;4.86
71807;BMP280;59655;42.590;23.364;2024-03-08T07:57:03;91503.56;;;4.88
71807;BMP280;59655;42.590;23.364;2024-03-08T07:59:28;91507.66;;;4.89
71807;BMP280;59655;42.590;23.364;2024-03-08T08:01:55;91512.19;;;4.89
71807;BMP280;59655;42.590;23.364;2024-03-08T08:04:20;91510.50;;;4.91
71807;BMP280;59655;42.590;23.364;2024-03-08T08:06:50;91508.78;;;4.94
71807;BMP280;59655;42.590;23.364;2024-03-08T08:09:16;91509.53;;;4.94
71807;BMP280;59655;42.590;23.364;2024-03-08T08:11:47;91508.09;;;4.93
71807;BMP280;59655;42.590;23.364;2024-03-08T08:14:12;91513.28;;;4.99
71807;BMP280;59655;42.590;23.364;2024-03-08T08:16:38;91513.78;;;4.97
71807;BMP280;59655;42.590;23.364;2024-03-08T08:19:06;91510.63;;;4.99
71807;BMP280;59655;42.590;23.364;2024-03-08T08:21:35;91508.31;;;4.95
71807;BMP280;59655;42.590;23.364;2024-03-08T08:24:04;91512.56;;;4.98
71807;BMP280;59655;42.590;23.364;2024-03-08T08:26:29;91514.19;;;5.01
71807;BMP280;59655;42.590;23.364;2024-03-08T08:28:55;91503.31;;;4.92
71807;BMP280;59655;42.590;23.364;2024-03-08T08:31:21;91510.88;;;5.01
71807;BMP280;59655;42.590;23.364;2024-03-08T08:33:47;91511.75;;;5.09
71807;BMP280;59655;42.590;23.364;2024-03-08T08:36:14;91512.78;;;5.00
71807;BMP280;59655;42.590;23.364;2024-03-08T08:38:39;91513.22;;;5.04
71807;BMP280;59655;42.590;23.364;2024-03-08T08:41:05;91513.44;;;5.07
71807;BMP280;59655;42.590;23.364;2024-03-08T08:43:31;91507.53;;;5.00
71807;BMP280;59655;42.590;23.364;2024-03-08T08:45:58;91506.78;;;5.00
71807;BMP280;59655;42.590;23.364;2024-03-08T08:48:24;91502.16;;;5.12
71807;BMP280;59655;42.590;23.364;2024-03-08T08:50:50;91502.09;;;5.17
71807;BMP280;59655;42.590;23.364;2024-03-08T08:53:17;91501.97;;;5.29
71807;BMP280;59655;42.590;23.364;2024-03-08T08:55:43;91502.19;;;5.31
71807;BMP280;59655;42.590;23.364;2024-03-08T08:58:10;91504.19;;;5.43
71807;BMP280;59655;42.590;23.364;2024-03-08T09:00:36;91501.78;;;5.45
71807;BMP280;59655;42.590;23.364;2024-03-08T09:03:02;91502.69;;;5.48
71807;BMP280;59655;42.590;23.364;2024-03-08T09:05:27;91500.19;;;5.56
71807;BMP280;59655;42.590;23.364;2024-03-08T09:07:53;91500.13;;;5.61
71807;BMP280;59655;42.590;23.364;2024-03-08T09:10:19;91502.75;;;5.61
71807;BMP280;59655;42.590;23.364;2024-03-08T09:12:45;91502.91;;;5.50
71807;BMP280;59655;42.590;23.364;2024-03-08T09:15:10;91512.28;;;5.64
71807;BMP280;59655;42.590;23.364;2024-03-08T09:17:38;91503.25;;;5.41
71807;BMP280;59655;42.590;23.364;2024-03-08T09:20:08;91507.16;;;5.53
71807;BMP280;59655;42.590;23.364;2024-03-08T09:22:35;91503.84;;;5.72
71807;BMP280;59655;42.590;23.364;2024-03-08T09:25:01;91506.00;;;5.86
71807;BMP280;59655;42.590;23.364;2024-03-08T09:27:27;91502.63;;;5.92
71807;BMP280;59655;42.590;23.364;2024-03-08T09:29:53;91499.63;;;5.82
71807;BMP280;59655;42.590;23.364;2024-03-08T09:32:18;91502.97;;;5.82
71807;BMP280;59655;42.590;23.364;2024-03-08T09:34:44;91506.00;;;5.86
71807;BMP280;59655;42.590;23.364;2024-03-08T09:37:09;91507.25;;;5.85
71807;BMP280;59655;42.590;23.364;2024-03-08T09:39:35;91502.84;;;5.75
71807;BMP280;59655;42.590;23.364;2024-03-08T09:42:03;91505.88;;;5.79
71807;BMP280;59655;42.590;23.364;2024-03-08T09:44:28;91502.84;;;5.75
71807;BMP280;59655;42.590;23.364;2024-03-08T09:46:55;91500.94;;;5.75
71807;BMP280;59655;42.590;23.364;2024-03-08T09:49:20;91507.06;;;5.97
71807;BMP280;59655;42.590;23.364;2024-03-08T09:51:46;91512.06;;;6.00
71807;BMP280;59655;42.590;23.364;2024-03-08T09:54:12;91507.13;;;5.78
71807;BMP280;59655;42.590;23.364;2024-03-08T09:56:39;91504.97;;;5.76
71807;BMP280;59655;42.590;23.364;2024-03-08T09:59:06;91502.69;;;5.86
71807;BMP280;59655;42.590;23.364;2024-03-08T10:01:55;91505.56;;;6.01
71807;BMP280;59655;42.590;23.364;2024-03-08T10:04:24;91507.72;;;6.03
71807;BMP280;59655;42.590;23.364;2024-03-08T10:06:50;91504.81;;;6.06
71807;BMP280;59655;42.590;23.364;2024-03-08T10:09:16;91499.03;;;6.08
71807;BMP280;59655;42.590;23.364;2024-03-08T10:11:42;91505.13;;;6.16
71807;BMP280;59655;42.590;23.364;2024-03-08T10:14:09;91498.44;;;6.15
71807;BMP280;59655;42.590;23.364;2024-03-08T10:16:34;91503.31;;;6.24
71807;BMP280;59655;42.590;23.364;2024-03-08T10:19:00;91504.75;;;6.39
71807;BMP280;59655;42.590;23.364;2024-03-08T10:21:26;91504.97;;;6.27
71807;BMP280;59655;42.590;23.364;2024-03-08T10:23:51;91498.78;;;6.38
71807;BMP280;59655;42.590;23.364;2024-03-08T10:26:17;91504.47;;;6.42
71807;BMP280;59655;42.590;23.364;2024-03-08T10:28:48;91508.63;;;6.05
71807;BMP280;59655;42.590;23.364;2024-03-08T10:31:17;91503.69;;;6.15
71807;BMP280;59655;42.590;23.364;2024-03-08T10:33:43;91504.31;;;6.21
71807;BMP280;59655;42.590;23.364;2024-03-08T10:36:10;91502.22;;;6.20
71807;BMP280;59655;42.590;23.364;2024-03-08T10:38:40;91503.53;;;6.26
71807;BMP280;59655;42.590;23.364;2024-03-08T10:41:07;91487.50;;;6.24
71807;BMP280;59655;42.590;23.364;2024-03-08T10:48:52;91487.75;;;6.40
71807;BMP280;59655;42.590;23.364;2024-03-08T10:51:20;91487.25;;;6.41
71807;BMP280;59655;42.590;23.364;2024-03-08T10:53:47;91489.81;;;6.47
71807;BMP280;59655;42.590;23.364;2024-03-08T10:56:13;91486.69;;;6.48
71807;BMP280;59655;42.590;23.364;2024-03-08T10:58:39;91486.69;;;6.48
71807;BMP280;59655;42.590;23.364;2024-03-08T11:01:05;91488.63;;;6.16
71807;BMP280;59655;42.590;23.364;2024-03-08T11:06:18;91482.22;;;6.57
71807;BMP280;59655;42.590;23.364;2024-03-08T11:08:48;91480.06;;;6.55
71807;BMP280;59655;42.590;23.364;2024-03-08T11:11:28;91480.38;;;6.65
71807;BMP280;59655;42.590;23.364;2024-03-08T11:13:56;91475.31;;;6.67
71807;BMP280;59655;42.590;23.364;2024-03-08T11:18:50;91469.66;;;6.76
71807;BMP280;59655;42.590;23.364;2024-03-08T11:21:18;91469.66;;;6.76
71807;BMP280;59655;42.590;23.364;2024-03-08T11:23:44;91469.66;;;6.76
71807;BMP280;59655;42.590;23.364;2024-03-08T11:26:24;91461.56;;;6.74
71807;BMP280;59655;42.590;23.364;2024-03-08T11:28:50;91469.31;;;6.53
71807;BMP280;59655;42.590;23.364;2024-03-08T11:31:22;91465.22;;;6.39
71807;BMP280;59655;42.590;23.364;2024-03-08T11:33:50;91462.84;;;6.67
71807;BMP280;59655;42.590;23.364;2024-03-08T11:36:22;91458.59;;;6.78
71807;BMP280;59655;42.590;23.364;2024-03-08T11:38:50;91457.28;;;6.71
71807;BMP280;59655;42.590;23.364;2024-03-08T11:41:23;91454.63;;;6.84
71807;BMP280;59655;42.590;23.364;2024-03-08T11:43:49;91466.50;;;6.91
71807;BMP280;59655;42.590;23.364;2024-03-08T11:46:16;91461.63;;;6.82
71807;BMP280;59655;42.590;23.364;2024-03-08T11:48:43;91457.88;;;6.90
71807;BMP280;59655;42.590;23.364;2024-03-08T11:51:11;91448.66;;;6.84
71807;BMP280;59655;42.590;23.364;2024-03-08T11:53:37;91457.06;;;6.96
71807;BMP280;59655;42.590;23.364;2024-03-08T11:56:09;91456.16;;;6.93
71807;BMP280;59655;42.590;23.364;2024-03-08T11:58:36;91449.88;;;6.96
71807;BMP280;59655;42.590;23.364;2024-03-08T12:01:04;91448.03;;;6.91
71807;BMP280;59655;42.590;23.364;2024-03-08T12:03:30;91455.22;;;7.04
71807;BMP280;59655;42.590;23.364;2024-03-08T12:06:01;91450.34;;;7.08
71807;BMP280;59655;42.590;23.364;2024-03-08T12:08:30;91457.25;;;7.11
71807;BMP280;59655;42.590;23.364;2024-03-08T12:10:56;91456.63;;;7.18
71807;BMP280;59655;42.590;23.364;2024-03-08T12:13:28;91447.28;;;7.17
71807;BMP280;59655;42.590;23.364;2024-03-08T12:15:58;91451.69;;;7.15
71807;BMP280;59655;42.590;23.364;2024-03-08T12:18:27;91456.78;;;6.99
71807;BMP280;59655;42.590;23.364;2024-03-08T12:21:10;91441.22;;;7.09
71807;BMP280;59655;42.590;23.364;2024-03-08T12:23:36;91446.09;;;7.18
71807;BMP280;59655;42.590;23.364;2024-03-08T12:28:41;91440.16;;;7.39
71807;BMP280;59655;42.590;23.364;2024-03-08T12:31:08;91443.38;;;7.45
71807;BMP280;59655;42.590;23.364;2024-03-08T12:33:50;91444.81;;;7.46
71807;BMP280;59655;42.590;23.364;2024-03-08T12:36:16;91445.81;;;7.43
71807;BMP280;59655;42.590;23.364;2024-03-08T12:38:45;91440.88;;;7.39
71807;BMP280;59655;42.590;23.364;2024-03-08T12:41:13;91434.69;;;7.23
71807;BMP280;59655;42.590;23.364;2024-03-08T12:43:39;91441.84;;;7.15
71807;BMP280;59655;42.590;23.364;2024-03-08T12:46:04;91433.88;;;7.28
71807;BMP280;59655;42.590;23.364;2024-03-08T12:48:34;91433.13;;;7.07
71807;BMP280;59655;42.590;23.364;2024-03-08T12:51:00;91428.56;;;6.94
71807;BMP280;59655;42.590;23.364;2024-03-08T12:53:26;91435.75;;;7.07
71807;BMP280;59655;42.590;23.364;2024-03-08T12:55:54;91431.88;;;7.21
71807;BMP280;59655;42.590;23.364;2024-03-08T12:58:21;91431.94;;;7.29
71807;BMP280;59655;42.590;23.364;2024-03-08T13:00:47;91434.91;;;7.25
71807;BMP280;59655;42.590;23.364;2024-03-08T13:03:12;91436.34;;;7.13
71807;BMP280;59655;42.590;23.364;2024-03-08T13:05:38;91428.38;;;6.79
71807;BMP280;59655;42.590;23.364;2024-03-08T13:08:06;91445.03;;;6.74
71807;BMP280;59655;42.590;23.364;2024-03-08T13:10:37;91434.25;;;6.72
71807;BMP280;59655;42.590;23.364;2024-03-08T13:13:03;91431.22;;;6.67
71807;BMP280;59655;42.590;23.364;2024-03-08T13:15:30;91435.19;;;6.87
71807;BMP280;59655;42.590;23.364;2024-03-08T13:17:55;91431.88;;;7.08
71807;BMP280;59655;42.590;23.364;2024-03-08T13:20:23;91440.28;;;7.20
71807;BMP280;59655;42.590;23.364;2024-03-08T13:22:48;91440.19;;;7.25
71807;BMP280;59655;42.590;23.364;2024-03-08T13:25:14;91434.91;;;7.25
71807;BMP280;59655;42.590;23.364;2024-03-08T13:27:42;91424.84;;;7.58
71807;BMP280;59655;42.590;23.364;2024-03-08T13:30:14;91427.69;;;7.81
71807;BMP280;59655;42.590;23.364;2024-03-08T13:32:44;91428.22;;;7.80
71807;BMP280;59655;42.590;23.364;2024-03-08T13:35:10;91418.44;;;7.88
71807;BMP280;59655;42.590;23.364;2024-03-08T13:37:41;91420.91;;;7.86
71807;BMP280;59655;42.590;23.364;2024-03-08T13:40:07;91424.81;;;7.92
71807;BMP280;59655;42.590;23.364;2024-03-08T13:42:37;91427.03;;;8.09
71807;BMP280;59655;42.590;23.364;2024-03-08T13:45:05;91422.84;;;8.14
71807;BMP280;59655;42.590;23.364;2024-03-08T13:47:32;91424.22;;;8.07
71807;BMP280;59655;42.590;23.364;2024-03-08T13:49:57;91434.41;;;8.03
71807;BMP280;59655;42.590;23.364;2024-03-08T13:52:23;91425.19;;;7.96
71807;BMP280;59655;42.590;23.364;2024-03-08T13:54:50;91427.25;;;7.90
71807;BMP280;59655;42.590;23.364;2024-03-08T13:57:16;91427.56;;;7.87
71807;BMP280;59655;42.590;23.364;2024-03-08T13:59:43;91422.47;;;7.89
71807;BMP280;59655;42.590;23.364;2024-03-08T14:02:08;91429.84;;;7.83
71807;BMP280;59655;42.590;23.364;2024-03-08T14:04:38;91429.63;;;7.81
71807;BMP280;59655;42.590;23.364;2024-03-08T14:07:05;91424.34;;;7.81
71807;BMP280;59655;42.590;23.364;2024-03-08T14:09:33;91425.16;;;7.75
71807;BMP280;59655;42.590;23.364;2024-03-08T14:12:03;91431.81;;;7.69
71807;BMP280;59655;42.590;23.364;2024-03-08T14:14:31;91426.28;;;7.59
71807;BMP280;59655;42.590;23.364;2024-03-08T14:16:56;91425.31;;;7.70
71807;BMP280;59655;42.590;23.364;2024-03-08T14:19:23;91432.34;;;7.67